createdAt,value
2023-03-07T00:01:40.080Z,6.60
2023-03-07T00:05:04.185Z,6.50
2023-03-07T00:08:29.613Z,6.70
2023-03-07T00:11:53.794Z,6.50
2023-03-07T00:15:17.765Z,6.50
2023-03-07T00:18:42.289Z,6.50
2023-03-07T00:22:06.104Z,6.40
2023-03-07T00:25:31.037Z,6.40
2023-03-07T00:28:56.020Z,6.40
2023-03-07T00:32:19.782Z,6.40
2023-03-07T00:35:43.367Z,6.40
2023-03-07T00:39:07.889Z,6.40
2023-03-07T00:42:33.089Z,6.40
2023-03-07T00:45:57.529Z,6.40
2023-03-07T00:49:21.148Z,6.40
2023-03-07T00:52:44.905Z,6.40
2023-03-07T00:56:17.659Z,6.50
2023-03-07T00:59:42.850Z,6.50
2023-03-07T01:03:06.439Z,6.50
2023-03-07T01:06:34.560Z,6.50
2023-03-07T01:09:58.335Z,6.50
2023-03-07T01:13:21.865Z,6.50
2023-03-07T01:16:46.899Z,6.50
2023-03-07T01:20:13.124Z,6.50
2023-03-07T01:23:37.123Z,6.60
2023-03-07T01:27:00.713Z,6.50
2023-03-07T01:30:26.807Z,6.50
2023-03-07T01:33:54.270Z,6.50
2023-03-07T01:37:19.028Z,6.50
2023-03-07T01:40:43.307Z,7.40
2023-03-07T01:44:17.369Z,6.50
2023-03-07T01:47:41.497Z,6.50
2023-03-07T01:51:06.993Z,6.50
2023-03-07T01:54:33.728Z,6.50
2023-03-07T01:58:01.516Z,6.50
2023-03-07T02:01:28.351Z,6.50
2023-03-07T02:04:58.892Z,6.60
2023-03-07T02:08:29.195Z,6.50
2023-03-07T02:11:53.318Z,6.50
2023-03-07T02:15:17.703Z,6.50
2023-03-07T02:18:46.002Z,6.50
2023-03-07T02:22:13.812Z,6.50
2023-03-07T02:25:48.518Z,6.50
2023-03-07T02:29:15.944Z,6.50
2023-03-07T02:32:42.366Z,6.40
2023-03-07T02:36:11.165Z,6.40
2023-03-07T02:39:44.090Z,6.40
2023-03-07T02:43:09.589Z,6.40
2023-03-07T02:46:37.012Z,6.40
2023-03-07T02:50:00.574Z,6.40
2023-03-07T02:53:25.046Z,6.40
2023-03-07T02:56:48.669Z,6.40
2023-03-07T03:00:14.587Z,6.40
2023-03-07T03:03:39.842Z,6.40
2023-03-07T03:07:03.506Z,6.40
2023-03-07T03:10:26.964Z,6.40
2023-03-07T03:13:50.789Z,6.40
2023-03-07T03:17:14.219Z,6.40
2023-03-07T03:20:42.392Z,6.40
2023-03-07T03:24:07.251Z,7.10
2023-03-07T03:27:33.586Z,6.40
2023-03-07T03:31:03.343Z,6.40
2023-03-07T03:34:27.732Z,6.40
2023-03-07T03:37:52.626Z,6.50
2023-03-07T03:41:16.912Z,6.50
2023-03-07T03:44:41.918Z,6.50
2023-03-07T03:48:06.174Z,6.50
2023-03-07T03:51:30.515Z,6.50
2023-03-07T03:54:56.091Z,6.40
2023-03-07T03:58:19.645Z,6.50
2023-03-07T04:01:43.468Z,6.50
2023-03-07T04:05:09.145Z,6.50
2023-03-07T04:08:33.168Z,6.50
2023-03-07T04:11:58.674Z,6.90
2023-03-07T04:15:22.947Z,6.40
2023-03-07T04:18:47.038Z,6.40
2023-03-07T04:22:13.036Z,6.40
2023-03-07T04:25:37.088Z,6.40
2023-03-07T04:29:04.316Z,6.30
2023-03-07T04:32:31.585Z,6.30
2023-03-07T04:35:55.551Z,7.00
2023-03-07T04:39:19.307Z,6.30
2023-03-07T04:42:43.603Z,6.30
2023-03-07T04:46:11.759Z,6.30
2023-03-07T04:49:36.232Z,6.30
2023-03-07T04:53:01.764Z,6.40
2023-03-07T04:56:26.063Z,6.40
2023-03-07T04:59:50.108Z,6.40
2023-03-07T05:03:15.921Z,6.40
2023-03-07T05:06:39.696Z,6.40
2023-03-07T05:10:04.276Z,6.40
2023-03-07T05:13:28.414Z,6.40
2023-03-07T05:16:52.415Z,6.40
2023-03-07T05:20:17.827Z,6.50
2023-03-07T05:23:41.556Z,6.50
2023-03-07T05:27:07.453Z,6.40
2023-03-07T05:30:31.133Z,6.90
2023-03-07T05:33:54.716Z,6.40
2023-03-07T05:37:19.728Z,6.40
2023-03-07T05:40:43.720Z,6.40
2023-03-07T05:44:08.850Z,6.40
2023-03-07T05:47:34.728Z,6.40
2023-03-07T05:51:02.981Z,6.40
2023-03-07T05:54:28.768Z,6.40
2023-03-07T05:57:52.633Z,6.50
2023-03-07T06:01:16.880Z,6.40
2023-03-07T06:04:40.638Z,6.40
2023-03-07T06:08:04.280Z,6.70
2023-03-07T06:11:29.202Z,6.40
2023-03-07T06:14:52.775Z,6.40
2023-03-07T06:18:17.157Z,6.40
2023-03-07T06:21:41.045Z,6.40
2023-03-07T06:25:06.387Z,6.40
2023-03-07T06:28:32.989Z,6.40
2023-03-07T06:31:57.590Z,6.40
2023-03-07T06:35:21.729Z,6.40
2023-03-07T06:38:48.515Z,6.40
2023-03-07T06:42:12.874Z,6.50
2023-03-07T06:45:38.871Z,6.50
2023-03-07T06:49:02.917Z,6.50
2023-03-07T06:52:26.692Z,6.50
2023-03-07T06:55:51.964Z,6.50
2023-03-07T06:59:16.058Z,6.50
2023-03-07T07:02:41.328Z,6.60
2023-03-07T07:06:05.213Z,6.60
2023-03-07T07:09:28.979Z,6.60
2023-03-07T07:12:56.677Z,6.70
2023-03-07T07:16:20.851Z,6.70
2023-03-07T07:19:46.737Z,6.80
2023-03-07T07:23:10.641Z,6.80
2023-03-07T07:26:34.432Z,6.90
2023-03-07T07:29:57.936Z,7.00
2023-03-07T07:33:21.582Z,7.00
2023-03-07T07:36:48.925Z,7.10
2023-03-07T07:40:15.307Z,7.10
2023-03-07T07:43:39.930Z,7.20
2023-03-07T07:47:09.172Z,7.30
2023-03-07T07:50:33.166Z,7.40
2023-03-07T07:53:58.323Z,7.60
2023-03-07T07:57:22.774Z,7.50
2023-03-07T08:00:47.076Z,7.50
2023-03-07T08:04:11.358Z,7.60
2023-03-07T08:07:35.134Z,7.70
2023-03-07T08:11:00.309Z,7.80
2023-03-07T08:14:23.857Z,7.90
2023-03-07T08:17:47.366Z,7.90
2023-03-07T08:21:10.888Z,8.00
2023-03-07T08:24:40.486Z,8.20
2023-03-07T08:28:06.088Z,8.20
2023-03-07T08:31:29.719Z,8.30
2023-03-07T08:34:53.739Z,8.50
2023-03-07T08:38:17.195Z,8.60
2023-03-07T08:41:40.866Z,8.90
2023-03-07T08:45:06.685Z,9.00
2023-03-07T08:48:31.008Z,9.20
2023-03-07T08:51:54.847Z,9.30
2023-03-07T08:55:18.662Z,9.50
2023-03-07T08:58:42.516Z,9.70
2023-03-07T09:02:08.048Z,10.00
2023-03-07T09:05:32.262Z,10.00
2023-03-07T09:08:55.815Z,10.10
2023-03-07T09:12:19.470Z,10.30
2023-03-07T09:15:43.231Z,10.40
2023-03-07T09:19:08.050Z,10.60
2023-03-07T09:22:31.534Z,10.80
2023-03-07T09:25:55.050Z,11.10
2023-03-07T09:29:18.525Z,11.40
2023-03-07T09:32:42.166Z,11.60
2023-03-07T09:36:09.615Z,11.80
2023-03-07T09:39:33.764Z,12.00
2023-03-07T09:43:09.871Z,12.00
2023-03-07T09:46:54.234Z,12.10
2023-03-07T09:50:31.969Z,11.60
2023-03-07T09:54:01.829Z,11.30
2023-03-07T09:57:31.431Z,11.00
2023-03-07T10:01:01.361Z,10.80
2023-03-07T10:04:36.130Z,10.50
2023-03-07T10:08:02.292Z,10.30
2023-03-07T10:11:52.576Z,10.10
2023-03-07T10:15:42.439Z,9.90
2023-03-07T10:19:17.105Z,9.70
2023-03-07T10:22:49.654Z,9.60
2023-03-07T10:26:22.241Z,9.50
2023-03-07T10:29:50.879Z,9.40
2023-03-07T10:33:20.663Z,9.30
2023-03-07T10:36:50.133Z,9.20
2023-03-07T10:40:24.995Z,9.20
2023-03-07T10:43:52.510Z,9.20
2023-03-07T10:47:22.510Z,9.10
2023-03-07T10:50:57.601Z,9.00
2023-03-07T10:54:25.154Z,9.00
2023-03-07T10:57:48.711Z,9.00
2023-03-07T11:01:21.933Z,9.00
2023-03-07T11:04:48.489Z,9.20
2023-03-07T11:08:28.017Z,9.00
2023-03-07T11:11:57.685Z,9.00
2023-03-07T11:15:25.726Z,9.00
2023-03-07T11:18:49.342Z,9.00
2023-03-07T11:22:26.219Z,8.90
2023-03-07T11:25:50.031Z,8.90
2023-03-07T11:29:15.451Z,9.10
2023-03-07T11:32:48.737Z,8.80
2023-03-07T11:36:17.213Z,8.80
2023-03-07T11:39:54.702Z,8.80
2023-03-07T11:43:24.520Z,8.90
2023-03-07T11:47:15.274Z,8.80
2023-03-07T11:50:44.959Z,8.90
2023-03-07T11:54:22.239Z,8.80
2023-03-07T11:58:11.153Z,9.00
2023-03-07T12:01:45.034Z,8.70
2023-03-07T12:05:45.210Z,8.80
2023-03-07T12:09:38.556Z,8.80
2023-03-07T12:13:19.258Z,8.70
2023-03-07T12:16:57.635Z,8.70
2023-03-07T12:20:43.021Z,8.70
2023-03-07T12:24:16.884Z,8.70
2023-03-07T12:27:49.016Z,8.70
2023-03-07T12:31:23.187Z,8.70
2023-03-07T12:34:55.163Z,8.70
2023-03-07T12:38:36.197Z,8.80
2023-03-07T12:42:11.181Z,8.80
2023-03-07T12:45:44.804Z,9.00
2023-03-07T12:49:22.812Z,9.40
2023-03-07T12:52:53.384Z,9.30
2023-03-07T12:56:23.320Z,9.50
2023-03-07T12:59:50.743Z,9.60
2023-03-07T13:03:25.166Z,9.70
2023-03-07T13:06:51.344Z,10.10
2023-03-07T13:10:21.687Z,9.90
2023-03-07T13:13:58.261Z,9.90
2023-03-07T13:17:59.333Z,10.00
2023-03-07T13:21:34.480Z,10.00
2023-03-07T13:25:52.585Z,10.00
2023-03-07T13:29:16.202Z,10.00
2023-03-07T13:33:00.583Z,10.00
2023-03-07T13:36:37.742Z,10.00
2023-03-07T13:40:06.954Z,9.90
2023-03-07T13:44:04.157Z,10.00
2023-03-07T13:47:43.690Z,9.90
2023-03-07T13:51:12.234Z,9.90
2023-03-07T13:54:36.358Z,9.90
2023-03-07T13:58:21.564Z,9.90
2023-03-07T14:01:50.774Z,9.90
2023-03-07T14:05:15.072Z,9.80
2023-03-07T14:08:39.846Z,9.80
2023-03-07T14:12:18.989Z,9.80
2023-03-07T14:15:59.600Z,9.80
2023-03-07T14:19:50.517Z,9.70
2023-03-07T14:23:35.385Z,9.70
2023-03-07T14:27:01.056Z,9.80
2023-03-07T14:30:27.353Z,9.80
2023-03-07T14:33:53.059Z,9.80
2023-03-07T14:37:22.869Z,10.10
2023-03-07T14:41:35.852Z,10.00
2023-03-07T14:45:21.771Z,10.20
2023-03-07T14:49:07.760Z,10.40
2023-03-07T14:52:32.082Z,10.60
2023-03-07T14:56:00.344Z,10.70
2023-03-07T14:59:28.979Z,11.60
2023-03-07T15:02:55.781Z,10.70
2023-03-07T15:06:24.700Z,10.70
2023-03-07T15:09:48.454Z,10.60
2023-03-07T15:13:24.579Z,10.60
2023-03-07T15:16:51.787Z,10.50
2023-03-07T15:20:21.437Z,10.50
2023-03-07T15:23:54.175Z,10.50
2023-03-07T15:27:25.749Z,10.40
2023-03-07T15:30:53.690Z,10.40
2023-03-07T15:34:26.179Z,8.50
2023-03-07T15:37:56.247Z,10.30
2023-03-07T15:41:38.364Z,10.30
2023-03-07T15:45:03.926Z,10.30
2023-03-07T15:48:37.987Z,10.30
2023-03-07T15:52:02.238Z,11.40
2023-03-07T15:55:28.057Z,10.20
2023-03-07T15:58:56.998Z,10.20
2023-03-07T16:02:41.821Z,10.20
2023-03-07T16:06:07.218Z,10.10
2023-03-07T16:09:30.706Z,10.10
2023-03-07T16:12:54.912Z,10.00
2023-03-07T16:16:25.375Z,10.00
2023-03-07T16:19:49.160Z,9.90
2023-03-07T16:23:15.308Z,9.90
2023-03-07T16:26:42.185Z,9.80
2023-03-07T16:30:16.599Z,9.80
2023-03-07T16:33:41.881Z,9.70
2023-03-07T16:37:05.530Z,9.70
2023-03-07T16:40:30.148Z,9.60
2023-03-07T16:43:56.429Z,9.60
2023-03-07T16:47:20.367Z,9.60
2023-03-07T16:50:45.263Z,9.50
2023-03-07T16:54:09.116Z,9.50
2023-03-07T16:57:32.789Z,9.50
2023-03-07T17:00:58.927Z,9.40
2023-03-07T17:04:22.974Z,9.40
2023-03-07T17:07:48.242Z,9.30
2023-03-07T17:11:24.564Z,9.30
2023-03-07T17:14:48.172Z,9.20
2023-03-07T17:18:13.268Z,9.20
2023-03-07T17:21:36.704Z,9.10
2023-03-07T17:25:04.912Z,9.00
2023-03-07T17:28:28.543Z,9.00
2023-03-07T17:31:51.985Z,8.90
2023-03-07T17:35:16.107Z,8.90
2023-03-07T17:38:40.028Z,8.80
2023-03-07T17:42:05.765Z,8.70
2023-03-07T17:45:29.320Z,8.70
2023-03-07T17:48:54.593Z,8.60
2023-03-07T17:52:18.548Z,8.50
2023-03-07T17:55:42.167Z,8.70
2023-03-07T17:59:07.289Z,8.40
2023-03-07T18:02:30.811Z,8.40
2023-03-07T18:05:54.576Z,8.50
2023-03-07T18:09:18.711Z,8.30
2023-03-07T18:12:42.375Z,8.30
2023-03-07T18:16:09.194Z,8.30
2023-03-07T18:19:32.797Z,8.20
2023-03-07T18:22:56.996Z,8.30
2023-03-07T18:26:22.258Z,8.30
2023-03-07T18:29:46.307Z,8.30
2023-03-07T18:33:11.133Z,8.30
2023-03-07T18:36:34.922Z,8.30
2023-03-07T18:39:58.940Z,8.30
2023-03-07T18:43:22.594Z,8.30
2023-03-07T18:46:46.785Z,8.30
2023-03-07T18:50:13.120Z,8.30
2023-03-07T18:53:38.277Z,8.30
2023-03-07T18:57:02.672Z,8.30
2023-03-07T19:00:26.984Z,8.30
2023-03-07T19:03:54.255Z,8.30
2023-03-07T19:07:19.078Z,8.30
2023-03-07T19:10:42.738Z,8.30
2023-03-07T19:14:06.582Z,8.40
2023-03-07T19:17:30.674Z,8.30
2023-03-07T19:20:54.101Z,8.40
2023-03-07T19:24:19.212Z,8.40
2023-03-07T19:27:42.611Z,8.40
2023-03-07T19:31:11.797Z,8.30
2023-03-07T19:34:35.459Z,8.40
2023-03-07T19:37:59.832Z,8.40
2023-03-07T19:41:27.833Z,8.40
2023-03-07T19:44:51.311Z,8.30
2023-03-07T19:48:14.781Z,8.30
2023-03-07T19:51:38.823Z,8.30
2023-03-07T19:55:03.383Z,8.30
2023-03-07T19:58:28.660Z,8.30
2023-03-07T20:01:52.222Z,8.30
2023-03-07T20:05:16.538Z,8.30
2023-03-07T20:08:40.142Z,8.30
2023-03-07T20:12:04.198Z,8.80
2023-03-07T20:15:29.232Z,8.30
2023-03-07T20:18:54.396Z,8.90
2023-03-07T20:22:18.254Z,8.20
2023-03-07T20:25:41.717Z,8.20
2023-03-07T20:29:08.559Z,8.20
2023-03-07T20:32:33.486Z,8.30
2023-03-07T20:36:09.782Z,8.30
2023-03-07T20:39:33.912Z,8.30
2023-03-07T20:42:57.514Z,8.30
2023-03-07T20:46:22.954Z,8.30
2023-03-07T20:49:47.858Z,8.30
2023-03-07T20:53:11.404Z,8.30
2023-03-07T20:56:39.008Z,8.60
2023-03-07T21:00:02.471Z,8.50
2023-03-07T21:03:28.072Z,8.30
2023-03-07T21:06:53.434Z,8.30
2023-03-07T21:10:17.711Z,8.30
2023-03-07T21:13:44.214Z,8.30
2023-03-07T21:17:09.045Z,8.30
2023-03-07T21:20:32.608Z,8.30
2023-03-07T21:23:58.077Z,8.30
2023-03-07T21:27:21.726Z,8.30
2023-03-07T21:30:45.239Z,8.30
2023-03-07T21:34:14.610Z,8.30
2023-03-07T21:37:38.143Z,8.30
2023-03-07T21:41:03.006Z,8.30
2023-03-07T21:44:26.877Z,8.30
2023-03-07T21:47:53.286Z,8.30
2023-03-07T21:51:17.250Z,8.30
2023-03-07T21:54:41.273Z,8.30
2023-03-07T21:58:06.950Z,8.30
2023-03-07T22:01:31.150Z,8.30
2023-03-07T22:04:54.780Z,8.30
2023-03-07T22:08:20.317Z,8.30
2023-03-07T22:11:43.898Z,8.30
2023-03-07T22:15:10.647Z,8.30
2023-03-07T22:18:35.092Z,8.30
2023-03-07T22:21:58.660Z,8.30
2023-03-07T22:25:22.759Z,8.30
2023-03-07T22:28:46.596Z,8.30
2023-03-07T22:32:12.057Z,8.30
2023-03-07T22:35:35.563Z,8.20
2023-03-07T22:38:59.019Z,8.20
2023-03-07T22:42:22.722Z,8.10
2023-03-07T22:45:50.543Z,8.10
2023-03-07T22:49:15.284Z,8.10
2023-03-07T22:52:42.442Z,8.10
2023-03-07T22:56:15.677Z,8.10
2023-03-07T22:59:39.881Z,8.40
2023-03-07T23:03:03.617Z,8.00
2023-03-07T23:06:31.939Z,8.00
2023-03-07T23:09:55.405Z,7.90
2023-03-07T23:13:18.892Z,7.90
2023-03-07T23:16:42.673Z,7.90
2023-03-07T23:20:08.965Z,7.90
2023-03-07T23:23:33.916Z,7.80
2023-03-07T23:26:57.415Z,7.80
2023-03-07T23:30:21.816Z,7.80
2023-03-07T23:33:45.552Z,7.70
2023-03-07T23:37:09.082Z,7.70
2023-03-07T23:40:37.226Z,7.70
2023-03-07T23:44:02.440Z,7.70
2023-03-07T23:47:25.979Z,7.60
2023-03-07T23:50:50.565Z,7.60
2023-03-07T23:54:13.979Z,7.50
2023-03-07T23:57:40.015Z,8.00
